Historyczne dane pomiarowe

Dodano dane terminowe – wersja testowa.

Dane z okresu 1951-2019

Wersja bazy: 1.34 [2019-03-16, lista zmian], aktualizacja planowana na 2019-04-15

Dane meteo z obszaru Polski uzyskane na podstawie danych udostępnionych przez Instytut Meteorologii i Gospodarki Wodnej – Państwowy Instytut Badawczy.

 

Wybierz Datę:    

       

TemperaturaWilgotnośćWiatrCiśnienieOpadyŚniegCzas trwania zjawisk
 Stacja t tx tn tng RH VA  wxwx mslp ppp RRR   cm mm wxwxwxwxwxwxwx
1965-07-16 11.8 14.1 8.2- 70.5- 4.7 4.0---- 27.2------------
1965-07-17 9.7 12.7 7.1- 85.3- 4.7 2.3---- 22.1------------
1965-07-18 6.6 8.8 5.7- 99.3- 7.3 3.0---- 6.2------------
1965-07-19 7.4 9.1 5.6- 98.5- 7.7 4.0---- 11.0------------
1965-07-20 7.9 9.8 6.6-100.0- 6.7 3.0---- 12.8------------
1965-07-21 7.9 9.1 6.5- 97.8- 7.7 8.3---- 15.0------------
1965-07-22 7.9 11.5 5.6- 96.8- 7.0 1.7---- 0.0------------
1965-07-23 7.0 9.3 6.1- 91.3- 5.0 8.0---- 0.9------------
1965-07-24 10.4 12.7 6.3- 72.8- 3.3 9.0---- 0.0------------
1965-07-25 10.3 13.5 9.2- 86.3- 4.7 5.7---- 0.0------------
1965-07-26 5.6 11.3 2.5- 79.3- 8.0 6.0---- 10.1------------
1965-07-27 2.4 4.4 1.3- 94.5- 6.0 5.7---- 1.8------------
1965-07-28 2.5 3.8 1.0- 90.0- 7.3 7.3---- 0.0------------
1965-07-29 6.4 10.2 2.0- 77.3- 4.7 8.0---- 4.4------------
1965-07-30 4.3 7.1 3.5- 88.8- 6.7 11.3---- 8.7------------
1965-07-31 5.4 7.6 2.6- 72.8- 7.0 7.0---- 8.2------------
1965-08-01 4.6 8.1 3.0- 98.8- 7.7 4.0---- 61.8------------
1965-08-02 -0.9 4.6 -2.7- 99.5- 7.7 11.0---- 41.0------------
1965-08-03 1.8 3.6 -1.6- 94.0- 4.3 6.7---- 0.3-- 19---------
1965-08-04 3.3 5.4 1.7- 90.5- 6.7 9.3---- 0.5-- 10---------
1965-08-05 5.9 8.9 2.0- 86.5- 5.3 6.3---- 0.0------------
1965-08-06 13.2 15.0 6.3- 52.8- 2.7 7.3---- 0.0------------
1965-08-07 14.0 16.9 12.2- 44.3- 1.3 11.0---- 0.0------------
1965-08-08 13.4 17.2 10.2- 45.3- 0.0 9.0---- 0.0------------
1965-08-09 10.8 15.5 9.3- 92.5- 4.0 3.3---- 0.0------------
1965-08-10 8.8 13.3 4.9- 88.5- 6.0 2.0---- 10.4------------
1965-08-11 0.8 7.6 0.1-100.0- 8.0 10.0---- 31.0------------
1965-08-12 0.7 1.5 -0.4-100.0- 8.0 11.0---- 17.7------------
1965-08-13 -0.1 1.3 -1.0-100.0- 7.7 6.7---- 1.9-- 2---------
1965-08-14 1.7 4.8 -0.8- 91.8- 6.7 3.7---- 0.0------------
234.7 ms

 

Źródłem pochodzenia danych jest Instytut Meteorologii i Gospodarki Wodnej – Państwowy Instytut Badawczy. Dane Instytutu Meteorologii i Gospodarki Wodnej – Państwowego Instytutu Badawczego zostały przetworzone.

Dane źródłowe można odnaleźć na stronie https://dane.imgw.pl